Time,TemperatureF,DewpointF,PressureIn,WindDirection,WindDirectionDegrees,WindSpeedMPH,WindSpeedGustMPH,Humidity,HourlyPrecipIn,Conditions,Clouds,dailyrainin,SoftwareType,DateUTC
2013-08-15 00:01:00,55.0,42.0,30.34,North,360,0.0,2.0,62,0.00,,,-99.99,,2013-08-15 07:01:00,
2013-08-15 00:21:00,56.0,42.0,30.35,North,360,2.0,3.0,60,0.00,,,-99.99,,2013-08-15 07:21:00,
2013-08-15 00:52:00,57.0,42.0,30.35,North,360,1.0,4.0,58,0.00,,,-99.99,,2013-08-15 07:52:00,
2013-08-15 01:21:00,57.0,45.0,30.34,North,360,4.0,6.0,64,0.00,,,-99.99,,2013-08-15 08:21:00,
2013-08-15 01:52:00,56.0,45.0,30.33,North,360,1.0,5.0,67,0.00,,,-99.99,,2013-08-15 08:52:00,
2013-08-15 02:01:00,56.0,45.0,30.33,North,360,1.0,5.0,67,0.00,,,-99.99,,2013-08-15 09:01:00,
2013-08-15 02:21:00,56.0,44.0,30.33,North,360,1.0,3.0,65,0.00,,,-99.99,,2013-08-15 09:21:00,
2013-08-15 02:53:00,55.0,44.0,30.34,North,360,1.0,2.0,67,0.00,,,-99.99,,2013-08-15 09:53:00,
2013-08-15 03:12:00,54.0,44.0,30.34,North,360,1.0,4.0,70,0.00,,,-99.99,,2013-08-15 10:12:00,
2013-08-15 03:22:00,54.0,44.0,30.34,North,360,1.0,4.0,70,0.00,,,-99.99,,2013-08-15 10:22:00,
2013-08-15 03:52:00,55.0,44.0,30.35,North,360,2.0,3.0,67,0.00,,,-99.99,,2013-08-15 10:52:00,
2013-08-15 04:22:00,55.0,48.0,30.35,North,360,1.0,4.0,76,0.00,,,-99.99,,2013-08-15 11:22:00,
2013-08-15 04:51:00,54.0,46.0,30.35,North,360,4.0,8.0,75,0.00,,,-99.99,,2013-08-15 11:51:00,
2013-08-15 05:21:00,53.0,45.0,30.36,North,360,2.0,4.0,75,0.00,,,-99.99,,2013-08-15 12:21:00,
2013-08-15 05:51:00,53.0,46.0,30.37,North,360,0.0,0.0,77,0.00,,,-99.99,,2013-08-15 12:51:00,
2013-08-15 06:52:00,55.0,48.0,30.39,North,360,3.0,5.0,77,0.00,,,-99.99,,2013-08-15 13:52:00,
2013-08-15 07:22:00,57.0,49.0,30.39,North,360,3.0,5.0,75,0.00,,,-99.99,,2013-08-15 14:22:00,
2013-08-15 07:53:00,59.0,51.0,30.39,North,360,2.0,5.0,74,0.00,,,-99.99,,2013-08-15 14:53:00,
2013-08-15 08:04:00,59.0,51.0,30.39,North,360,2.0,5.0,74,0.00,,,-99.99,,2013-08-15 15:04:00,
2013-08-15 08:22:00,62.0,51.0,30.39,North,360,4.0,8.0,67,0.00,,,-99.99,,2013-08-15 15:22:00,
2013-08-15 08:34:00,62.0,51.0,30.39,North,360,4.0,8.0,67,0.00,,,-99.99,,2013-08-15 15:34:00,
2013-08-15 08:54:00,64.0,52.0,30.40,North,360,3.0,5.0,65,0.00,,,-99.99,,2013-08-15 15:54:00,
2013-08-15 09:25:00,64.0,53.0,30.39,North,360,2.0,11.0,67,0.00,,,-99.99,,2013-08-15 16:25:00,
2013-08-15 09:55:00,68.0,49.0,30.39,North,360,2.0,5.0,51,0.00,,,-99.99,,2013-08-15 16:55:00,
2013-08-15 09:56:00,-999.0,-99.9,30.40,North,360,2.0,4.0,-999,-99.99,,,-99.99,,2013-08-15 16:56:00,
2013-08-15 10:06:00,68.0,49.0,30.39,North,360,2.0,5.0,51,0.00,,,-99.99,,2013-08-15 17:06:00,
2013-08-15 10:30:00,69.0,-99.9,30.40,North,360,2.0,4.0,51,0.00,,,-99.99,,2013-08-15 17:30:00,
2013-08-15 10:38:00,69.0,50.0,30.40,North,360,2.0,4.0,51,0.00,,,-99.99,,2013-08-15 17:38:00,
2013-08-15 10:53:00,69.0,50.0,30.40,North,360,2.0,4.0,51,0.00,,,-99.99,,2013-08-15 17:53:00,
2013-08-15 11:40:00,-999.0,-99.9,30.40,North,360,8.0,16.0,64,0.01,,,-99.99,,2013-08-15 18:40:00,
2013-08-15 12:03:00,-999.0,-99.9,30.40,North,360,10.0,23.0,-999,0.01,,,-99.99,,2013-08-15 19:03:00,
2013-08-15 12:31:00,67.0,54.0,30.40,North,360,2.0,4.0,63,0.00,,,-99.99,,2013-08-15 19:31:00,
2013-08-15 13:12:00,67.0,54.0,30.40,North,360,2.0,4.0,63,0.00,,,-99.99,,2013-08-15 20:12:00,
2013-08-15 13:26:00,67.0,54.0,30.40,North,360,2.0,4.0,63,0.00,,,-99.99,,2013-08-15 20:26:00,
2013-08-15 15:17:00,76.0,46.0,30.37,North,360,11.0,17.0,35,0.00,,,-99.99,,2013-08-15 22:17:00,
2013-08-15 15:28:00,76.0,46.0,30.37,North,360,11.0,17.0,35,0.00,,,-99.99,,2013-08-15 22:28:00,
2013-08-15 15:40:00,76.0,46.0,30.37,North,360,11.0,17.0,35,0.00,,,-99.99,,2013-08-15 22:40:00,
2013-08-15 16:34:00,-999.0,-99.9,30.37,North,360,5.0,10.0,28,0.00,,,-99.99,,2013-08-15 23:34:00,
2013-08-15 16:40:00,81.0,45.0,30.37,North,360,5.0,10.0,28,0.00,,,-99.99,,2013-08-15 23:40:00,
2013-08-15 16:55:00,81.0,45.0,30.36,North,360,9.0,15.0,28,0.00,,,-99.99,,2013-08-15 23:55:00,
2013-08-15 17:08:00,81.0,45.0,30.36,North,360,9.0,15.0,28,0.00,,,-99.99,,2013-08-16 00:08:00,
2013-08-15 17:24:00,76.0,47.0,30.35,North,360,7.0,14.0,36,0.00,,,-99.99,,2013-08-16 00:24:00,
2013-08-15 17:52:00,77.0,47.0,30.35,North,360,7.0,12.0,35,0.00,,,-99.99,,2013-08-16 00:52:00,
2013-08-15 18:26:00,74.0,45.0,30.35,North,360,4.0,8.0,36,0.00,,,-99.99,,2013-08-16 01:26:00,
2013-08-15 18:42:00,-999.0,-99.9,30.35,North,360,4.0,-999.0,-999,-99.99,,,-99.99,,2013-08-16 01:42:00,
2013-08-15 18:54:00,73.0,47.0,30.35,North,360,2.0,3.0,39,0.00,,,-99.99,,2013-08-16 01:54:00,
2013-08-15 19:21:00,71.0,49.0,30.35,North,360,3.0,4.0,46,0.00,,,-99.99,,2013-08-16 02:21:00,
2013-08-15 19:42:00,70.0,46.0,30.35,North,360,2.0,4.0,43,0.00,,,-99.99,,2013-08-16 02:42:00,
2013-08-15 19:52:00,69.0,48.0,30.36,North,360,1.0,2.0,48,0.00,,,-99.99,,2013-08-16 02:52:00,
2013-08-15 20:21:00,65.0,50.0,30.37,North,360,2.0,4.0,58,0.00,,,-99.99,,2013-08-16 03:21:00,
2013-08-15 20:53:00,65.0,50.0,30.37,North,360,1.0,4.0,58,0.00,,,-99.99,,2013-08-16 03:53:00,
2013-08-15 21:13:00,60.0,50.0,30.37,North,360,1.0,3.0,70,0.00,,,-99.99,,2013-08-16 04:13:00,
2013-08-15 21:23:00,60.0,50.0,30.37,North,360,1.0,3.0,70,0.00,,,-99.99,,2013-08-16 04:23:00,
2013-08-15 21:53:00,60.0,49.0,30.38,North,360,1.0,2.0,68,0.00,,,-99.99,,2013-08-16 04:53:00,
2013-08-15 22:21:00,59.0,50.0,30.38,North,360,1.0,4.0,73,0.00,,,-99.99,,2013-08-16 05:21:00,